Time;durP1;ratioP1;P1;durP2;ratioP2;P2;SDS_P1;SDS_P2;PMS_P1;PMS_P2;Temp;Humidity;BMP_temperature;BMP_pressure;BME280_temperature;BME280_humidity;BME280_pressure;Samples;Min_cycle;Max_cycle;Signal;HPM_P1;HPM_P2
2023/04/28 00:04:23;;;;;;;13.00;8.27;;;;;;;0.41;100.00;96700.47;10369283;28;20257;-66
2023/04/28 00:09:23;;;;;;;12.80;8.87;;;;;;;0.39;100.00;96692.00;10369197;28;20220;-64
2023/04/28 00:14:24;;;;;;;13.90;8.60;;;;;;;0.32;100.00;96686.38;10369180;28;20700;-64
2023/04/28 00:19:25;;;;;;;15.23;8.00;;;;;;;0.35;100.00;96683.63;10368931;28;20197;-65
2023/04/28 00:24:25;;;;;;;12.73;9.07;;;;;;;0.13;100.00;96682.34;10368958;28;20217;-65
2023/04/28 00:29:27;;;;;;;12.50;8.90;;;;;;;0.08;100.00;96679.22;10368634;28;20736;-66
2023/04/28 00:34:32;;;;;;;14.90;9.27;;;;;;;-0.05;100.00;96673.97;10368487;28;20217;-64
2023/04/28 00:39:32;;;;;;;14.57;9.30;;;;;;;0.05;100.00;96663.97;10368568;28;20729;-66
2023/04/28 00:44:32;;;;;;;13.57;8.27;;;;;;;-0.10;100.00;96663.13;10368223;28;20298;-65
2023/04/28 00:49:34;;;;;;;17.17;8.97;;;;;;;-0.23;100.00;96659.63;10366867;28;20232;-63
2023/04/28 00:54:34;;;;;;;14.67;9.47;;;;;;;-0.04;100.00;96651.66;10317069;28;995124;-63
2023/04/28 00:59:35;;;;;;;14.87;9.10;;;;;;;-0.16;100.00;96635.19;10369616;28;20187;-66
2023/04/28 01:04:35;;;;;;;14.97;9.07;;;;;;;-0.24;100.00;96627.09;10369277;28;20583;-65
2023/04/28 01:09:36;;;;;;;17.67;10.97;;;;;;;-0.48;100.00;96627.63;10367627;28;20221;-65
2023/04/28 01:14:37;;;;;;;16.57;9.40;;;;;;;-0.37;100.00;96634.69;10371657;28;20231;-64
2023/04/28 01:19:37;;;;;;;13.20;10.20;;;;;;;-0.29;100.00;96626.53;10375700;28;20764;-66
2023/04/28 01:24:38;;;;;;;14.47;10.47;;;;;;;-0.22;100.00;96623.50;10375590;28;20209;-65
2023/04/28 01:29:41;;;;;;;13.77;9.03;;;;;;;-0.01;100.00;96623.13;10375794;28;20227;-65
2023/04/28 01:34:41;;;;;;;14.33;9.30;;;;;;;-0.09;100.00;96609.88;10376578;28;20737;-65
2023/04/28 01:39:41;;;;;;;17.03;9.37;;;;;;;-0.26;100.00;96603.19;10375312;28;20659;-65
2023/04/28 01:44:42;;;;;;;16.73;9.37;;;;;;;-0.36;100.00;96595.19;10374553;28;20556;-65
2023/04/28 01:49:46;;;;;;;18.83;10.27;;;;;;;-0.38;100.00;96591.88;10374864;28;20283;-65
2023/04/28 01:54:47;;;;;;;12.87;10.30;;;;;;;-0.38;100.00;96599.63;10375721;28;20251;-63
2023/04/28 01:59:47;;;;;;;20.17;10.37;;;;;;;-0.43;100.00;96599.88;10374394;28;20212;-64
2023/04/28 02:04:48;;;;;;;16.40;10.23;;;;;;;-0.45;100.00;96601.72;10374568;28;20831;-65
2023/04/28 02:09:48;;;;;;;11.90;9.33;;;;;;;-0.40;100.00;96597.13;10373715;28;20224;-65
2023/04/28 02:14:50;;;;;;;13.77;9.93;;;;;;;-0.32;100.00;96588.94;10375346;28;20220;-64
2023/04/28 02:19:55;;;;;;;15.50;9.50;;;;;;;-0.36;100.00;96578.00;10374837;28;20208;-65
2023/04/28 02:24:56;;;;;;;13.23;9.47;;;;;;;-0.45;100.00;96583.69;10373550;28;20776;-65
2023/04/28 02:29:57;;;;;;;17.00;9.73;;;;;;;-0.51;100.00;96573.75;10373289;28;20227;-64
2023/04/28 02:34:57;;;;;;;15.90;9.93;;;;;;;-0.32;100.00;96568.34;10374288;28;20586;-65
2023/04/28 02:39:57;;;;;;;17.57;9.87;;;;;;;-0.18;100.00;96564.94;10373737;28;20415;-63
2023/04/28 02:44:58;;;;;;;16.30;9.77;;;;;;;-0.22;100.00;96558.31;10381759;28;20209;-64
2023/04/28 02:49:58;;;;;;;15.17;9.80;;;;;;;0.04;100.00;96559.28;10344428;28;20392;-63
2023/04/28 02:54:59;;;;;;;12.83;9.10;;;;;;;0.16;100.00;96547.41;10331758;28;20248;-65
2023/04/28 03:00:00;;;;;;;12.40;8.77;;;;;;;0.35;100.00;96550.47;10331742;28;20213;-65
2023/04/28 03:05:06;;;;;;;12.03;8.40;;;;;;;0.51;100.00;96536.63;10358145;28;20259;-64
2023/04/28 03:10:07;;;;;;;13.03;8.70;;;;;;;0.60;100.00;96535.16;10371660;28;20450;-66
2023/04/28 03:15:08;;;;;;;14.83;8.83;;;;;;;0.56;100.00;96526.00;10371595;28;20702;-65
2023/04/28 03:20:10;;;;;;;11.40;9.27;;;;;;;0.61;100.00;96524.75;10371492;28;20240;-65
2023/04/28 03:25:11;;;;;;;12.07;7.93;;;;;;;1.48;100.00;96525.03;10370667;28;20209;-66
2023/04/28 03:30:19;;;;;;;37.97;13.33;;;;;;;2.79;100.00;96507.22;10370421;28;20739;-65
2023/04/28 03:35:20;;;;;;;19.83;10.13;;;;;;;3.56;100.00;96465.97;10370094;28;20217;-65
2023/04/28 03:40:20;;;;;;;32.10;15.67;;;;;;;4.23;93.46;96434.88;10370186;28;20192;-64
2023/04/28 03:45:56;;;;;;;8.87;5.00;;;;;;;4.45;88.13;96408.00;10371895;28;20715;-66
2023/04/28 03:50:56;;;;;;;9.97;5.37;;;;;;;4.67;85.60;96406.22;10370198;28;20355;-65
2023/04/28 03:55:57;;;;;;;8.13;5.20;;;;;;;4.69;84.26;96405.16;10369955;28;20287;-65
2023/04/28 04:00:59;;;;;;;8.60;4.57;;;;;;;5.05;82.00;96378.84;10367062;28;20564;-66
2023/04/28 04:06:00;;;;;;;13.33;5.00;;;;;;;5.30;79.91;96365.41;10344199;28;21241;-65
2023/04/28 04:11:01;;;;;;;9.53;4.80;;;;;;;5.52;78.47;96363.53;10356228;28;20232;-66
2023/04/28 04:16:01;;;;;;;9.43;4.90;;;;;;;5.86;76.84;96343.19;10369242;28;20244;-66
2023/04/28 04:21:02;;;;;;;6.43;4.40;;;;;;;6.13;74.18;96322.72;10369336;28;20186;-65
2023/04/28 04:26:03;;;;;;;13.20;5.60;;;;;;;6.28;73.29;96315.28;10369150;28;20213;-64
2023/04/28 04:31:03;;;;;;;9.13;5.33;;;;;;;6.48;72.34;96298.69;10369047;28;20197;-66
2023/04/28 04:36:04;;;;;;;10.27;4.80;;;;;;;6.55;71.31;96289.34;10369062;28;20220;-65
2023/04/28 04:41:05;;;;;;;16.47;4.97;;;;;;;6.65;71.32;96297.13;10368908;28;20283;-65
2023/04/28 04:46:06;;;;;;;8.17;4.40;;;;;;;6.81;70.06;96278.28;10368814;28;20216;-66
2023/04/28 04:51:06;;;;;;;12.60;5.43;;;;;;;6.89;69.86;96280.16;10374968;28;20197;-65
2023/04/28 04:56:08;;;;;;;7.40;4.10;;;;;;;6.94;70.67;96286.59;10376934;28;20236;-64
2023/04/28 05:01:10;;;;;;;9.03;3.83;;;;;;;7.03;69.75;96286.69;10376819;28;20280;-65
2023/04/28 05:06:11;;;;;;;11.13;4.70;;;;;;;6.99;69.75;96288.75;10376565;28;20292;-65
2023/04/28 05:11:17;;;;;;;8.50;4.43;;;;;;;7.07;69.71;96282.84;10376491;28;20223;-64
2023/04/28 05:16:18;;;;;;;8.03;3.70;;;;;;;7.33;68.61;96275.13;10376181;28;20217;-64
2023/04/28 05:21:18;;;;;;;8.50;4.70;;;;;;;7.39;67.95;96258.91;10377203;28;20202;-64
2023/04/28 05:26:19;;;;;;;8.40;3.93;;;;;;;7.57;68.04;96266.75;10375897;28;20182;-64
2023/04/28 05:31:20;;;;;;;10.27;5.33;;;;;;;7.68;67.24;96256.09;10375471;28;20276;-64
2023/04/28 05:36:21;;;;;;;7.03;3.27;;;;;;;7.84;66.85;96242.38;10375812;28;20197;-65
2023/04/28 05:41:21;;;;;;;17.30;7.23;;;;;;;8.28;66.48;96243.34;10376317;28;20725;-65
2023/04/28 05:46:22;;;;;;;9.10;4.30;;;;;;;8.92;65.56;96228.16;10375147;28;20224;-65
2023/04/28 05:51:23;;;;;;;10.23;7.17;;;;;;;9.14;63.83;96215.50;10373908;28;20191;-65
2023/04/28 05:56:23;;;;;;;5.97;3.73;;;;;;;9.20;62.68;96197.38;10374776;28;20178;-65
2023/04/28 06:01:24;;;;;;;8.53;3.87;;;;;;;9.15;62.04;96181.34;10407402;28;20255;-65
2023/04/28 06:06:26;;;;;;;3.47;2.53;;;;;;;9.18;60.99;96167.97;10374291;28;20675;-65
2023/04/28 06:11:28;;;;;;;9.07;3.70;;;;;;;9.18;60.92;96182.84;10406928;28;20189;-65
2023/04/28 06:16:28;;;;;;;6.83;3.10;;;;;;;9.17;60.76;96184.63;10373904;28;20671;-64
2023/04/28 06:21:28;;;;;;;7.03;3.10;;;;;;;9.12;61.32;96205.19;10378363;28;20197;-64
2023/04/28 06:26:30;;;;;;;5.87;3.47;;;;;;;9.16;60.46;96195.22;10359207;28;20247;-65
2023/04/28 06:31:31;;;;;;;14.00;3.43;;;;;;;9.15;60.20;96176.13;10373140;28;20708;-64
2023/04/28 06:36:31;;;;;;;6.93;3.27;;;;;;;9.18;60.65;96183.66;10374441;28;20680;-65
2023/04/28 06:41:32;;;;;;;6.80;3.37;;;;;;;9.30;60.21;96181.56;10374079;28;20185;-65
2023/04/28 06:46:33;;;;;;;9.87;3.80;;;;;;;9.39;59.81;96175.34;10372787;28;20283;-63
2023/04/28 06:51:33;;;;;;;8.50;3.60;;;;;;;9.51;59.29;96178.47;10355871;28;20223;-66
2023/04/28 06:56:34;;;;;;;10.03;4.20;;;;;;;9.75;59.41;96193.31;10372578;28;20650;-65
2023/04/28 07:01:35;;;;;;;7.67;3.70;;;;;;;9.97;58.76;96162.25;10365770;28;20208;-65
2023/04/28 07:06:35;;;;;;;6.73;3.40;;;;;;;10.21;58.61;96152.72;10376493;28;20346;-64
2023/04/28 07:11:36;;;;;;;9.83;3.87;;;;;;;10.28;58.81;96156.28;10352003;28;20226;-65
2023/04/28 07:16:36;;;;;;;6.47;4.03;;;;;;;10.46;57.82;96146.44;10349339;28;20264;-65
2023/04/28 07:21:36;;;;;;;8.13;3.93;;;;;;;10.57;57.46;96147.88;10345990;28;20210;-64
2023/04/28 07:26:37;;;;;;;6.28;3.75;;;;;;;10.88;57.90;96163.59;10355336;28;20691;-65
2023/04/28 07:31:37;;;;;;;8.43;4.25;;;;;;;10.87;56.68;96135.78;10385278;28;20771;-66
2023/04/28 07:36:38;;;;;;;4.50;2.75;;;;;;;11.30;55.86;96121.41;10371455;28;20185;-65
2023/04/28 07:41:38;;;;;;;9.60;3.67;;;;;;;11.52;55.10;96119.75;10370755;28;20213;-65
2023/04/28 07:46:38;;;;;;;8.25;3.50;;;;;;;11.44;54.79;96110.16;10370842;28;20256;-67
2023/04/28 07:51:39;;;;;;;9.40;3.78;;;;;;;11.87;54.55;96112.22;10370155;28;20252;-63
2023/04/28 07:56:39;;;;;;;6.45;3.10;;;;;;;12.55;53.39;96093.75;10370582;28;20197;-65
2023/04/28 08:01:40;;;;;;;5.80;2.50;;;;;;;12.44;52.97;96084.53;10369825;28;20256;-65
2023/04/28 08:06:40;;;;;;;7.53;2.97;;;;;;;12.32;52.42;96073.69;10369318;28;20628;-64
2023/04/28 08:11:41;;;;;;;7.38;4.68;;;;;;;11.62;53.62;96090.66;10369700;28;20217;-66
2023/04/28 08:16:41;;;;;;;5.05;3.03;;;;;;;11.72;52.97;96080.72;10369995;28;20224;-65
2023/04/28 08:21:41;;;;;;;6.22;3.65;;;;;;;11.78;54.22;96109.66;10369530;28;20221;-65
2023/04/28 08:26:42;;;;;;;4.30;3.53;;;;;;;11.53;53.48;96084.66;10369275;28;20229;-65
2023/04/28 08:31:42;;;;;;;9.57;4.00;;;;;;;11.59;53.82;96102.31;10371788;28;20303;-64
2023/04/28 08:36:42;;;;;;;9.30;4.88;;;;;;;11.61;54.07;96108.19;10371488;28;20189;-65
2023/04/28 08:41:43;;;;;;;7.13;3.50;;;;;;;11.89;54.40;96112.84;10370955;28;20218;-67
2023/04/28 08:46:44;;;;;;;8.45;3.40;;;;;;;12.48;53.50;96110.25;10345508;28;20363;-65
2023/04/28 08:51:49;;;;;;;5.15;3.00;;;;;;;12.91;51.57;96069.28;10379148;28;20247;-65
2023/04/28 08:56:49;;;;;;;7.53;3.42;;;;;;;12.97;51.58;96079.03;10409705;28;20243;-66
2023/04/28 09:01:51;;;;;;;8.55;3.17;;;;;;;12.91;51.79;96067.47;10393706;28;20224;-64
2023/04/28 09:06:51;;;;;;;6.95;3.42;;;;;;;12.94;51.94;96076.78;10368901;28;20744;-65
2023/04/28 09:11:59;;;;;;;7.72;3.92;;;;;;;13.60;51.11;96067.88;10367186;28;20275;-66
2023/04/28 09:17:00;;;;;;;7.53;2.80;;;;;;;13.85;50.71;96063.81;10367927;28;20652;-64
2023/04/28 09:22:01;;;;;;;5.70;3.10;;;;;;;14.08;50.62;96076.69;10362908;28;20217;-66
2023/04/28 09:27:03;;;;;;;5.70;3.55;;;;;;;13.77;50.68;96061.34;10367515;28;20688;-65
2023/04/28 09:32:12;;;;;;;6.07;3.58;;;;;;;13.55;50.73;96058.75;10382412;28;20300;-66
2023/04/28 09:37:23;;;;;;;5.15;2.97;;;;;;;13.84;50.86;96074.53;10414704;28;20645;-65
2023/04/28 09:42:33;;;;;;;8.90;3.15;;;;;;;13.70;50.81;96061.28;10398620;28;20845;-66
2023/04/28 09:47:36;;;;;;;4.57;2.95;;;;;;;13.53;50.96;96073.09;10375090;28;20228;-66
2023/04/28 09:52:36;;;;;;;4.82;2.67;;;;;;;13.05;51.05;96067.59;10375052;28;20659;-66
2023/04/28 09:57:37;;;;;;;5.03;3.63;;;;;;;12.97;51.76;96073.78;10374976;28;20197;-65
2023/04/28 10:02:37;;;;;;;6.25;3.58;;;;;;;12.89;52.29;96082.59;10374423;28;20282;-65
2023/04/28 10:07:38;;;;;;;5.68;3.47;;;;;;;12.61;52.99;96087.78;10374800;28;20231;-65
2023/04/28 10:12:39;;;;;;;8.00;3.45;;;;;;;12.25;54.46;96114.78;10388931;28;20208;-65
2023/04/28 10:17:39;;;;;;;7.65;2.97;;;;;;;12.35;57.56;96188.06;10370676;28;20535;-65
2023/04/28 10:22:57;;;;;;;8.68;3.78;;;;;;;11.91;58.93;96206.19;10414772;28;21042;-65
2023/04/28 10:27:59;;;;;;;7.50;3.40;;;;;;;11.98;61.33;96264.06;10414902;28;20232;-67
2023/04/28 10:33:05;;;;;;;5.93;3.53;;;;;;;11.78;61.70;96255.81;10414353;28;20712;-67
2023/04/28 10:38:07;;;;;;;10.60;4.10;;;;;;;11.06;63.96;96280.50;10414663;28;20191;-67
2023/04/28 10:43:10;;;;;;;6.73;3.23;;;;;;;10.58;66.78;96301.44;10401210;28;20232;-68
2023/04/28 10:48:10;;;;;;;6.10;2.93;;;;;;;10.37;69.75;96335.97;10370567;28;20781;-65
2023/04/28 10:53:10;;;;;;;9.17;4.40;;;;;;;10.14;74.16;96380.28;10406159;23;20306;-68
2023/04/28 10:58:13;;;;;;;7.60;3.50;;;;;;;9.95;74.03;96356.06;10388140;28;20280;-68
2023/04/28 11:03:45;;;;;;;8.00;4.60;;;;;;;9.75;78.85;96365.97;10372091;28;20224;-68
2023/04/28 11:08:45;;;;;;;12.23;5.57;;;;;;;9.61;84.01;96377.88;10404043;28;20237;-69
2023/04/28 11:13:47;;;;;;;7.17;4.87;;;;;;;9.21;83.78;96342.75;10412914;28;20691;-68
2023/04/28 11:18:51;;;;;;;8.20;4.20;;;;;;;9.19;86.29;96354.34;10411350;28;20758;-69
2023/04/28 11:23:51;;;;;;;9.30;5.47;;;;;;;9.06;88.06;96365.22;10404622;28;20212;-67
2023/04/28 11:28:57;;;;;;;10.93;5.33;;;;;;;9.04;90.67;96364.56;10388887;28;20725;-68
2023/04/28 11:40:22;;;;;;;11.60;6.20;;;;;;;8.87;89.07;96337.53;10485286;28;20187;-69
2023/04/28 11:45:23;;;;;;;14.17;6.87;;;;;;;8.69;89.27;96335.78;10478880;28;20203;-69
2023/04/28 11:50:44;;;;;;;11.93;6.67;;;;;;;8.62;90.77;96350.47;10467140;28;20251;-69
2023/04/28 11:55:44;;;;;;;12.30;6.93;;;;;;;8.57;92.15;96340.47;10470456;28;20242;-68
2023/04/28 12:00:45;;;;;;;11.80;7.00;;;;;;;8.72;94.11;96345.13;10448387;28;20202;-68
2023/04/28 12:05:46;;;;;;;15.93;7.80;;;;;;;8.85;97.40;96353.38;10478966;28;20219;-67
2023/04/28 12:11:07;;;;;;;13.33;7.63;;;;;;;8.91;97.57;96333.63;10468713;28;20230;-67
2023/04/28 12:16:08;;;;;;;15.57;6.53;;;;;;;8.82;97.27;96351.06;10476008;28;20210;-68
2023/04/28 12:21:19;;;;;;;15.20;6.97;;;;;;;8.80;97.57;96336.50;10488010;28;20210;-68
2023/04/28 12:26:25;;;;;;;16.40;11.40;;;;;;;8.85;100.00;96337.69;10489146;28;20211;-68
2023/04/28 12:31:26;;;;;;;12.17;7.43;;;;;;;8.98;100.00;96332.03;10476678;28;20689;-68
2023/04/28 12:36:26;;;;;;;16.10;9.20;;;;;;;8.95;100.00;96326.31;10487662;28;20203;-68
2023/04/28 12:41:27;;;;;;;14.53;8.57;;;;;;;8.85;100.00;96329.88;10487629;28;20270;-68
2023/04/28 12:46:30;;;;;;;14.97;8.30;;;;;;;8.86;100.00;96328.88;10466893;28;20289;-68
2023/04/28 12:51:30;;;;;;;15.83;9.07;;;;;;;8.89;100.00;96322.53;10462060;28;20207;-68
2023/04/28 12:56:30;;;;;;;13.93;7.40;;;;;;;8.92;100.00;96324.81;10476384;28;20231;-68
2023/04/28 13:01:31;;;;;;;12.80;8.67;;;;;;;8.99;100.00;96319.78;10488110;28;20198;-68
2023/04/28 13:06:31;;;;;;;15.70;8.77;;;;;;;9.00;100.00;96296.13;10474247;28;20352;-68
2023/04/28 13:11:32;;;;;;;17.47;8.70;;;;;;;9.14;100.00;96286.84;10468017;28;20282;-68
2023/04/28 13:16:33;;;;;;;16.20;8.67;;;;;;;9.29;100.00;96287.06;10473828;28;20368;-68
2023/04/28 13:21:34;;;;;;;18.40;9.30;;;;;;;9.46;100.00;96264.41;10483178;28;20235;-68
2023/04/28 13:26:34;;;;;;;105.50;41.07;;;;;;;9.50;98.40;96260.50;10477622;28;20310;-69
2023/04/28 13:31:35;;;;;;;220.47;84.43;;;;;;;9.59;95.97;96253.50;10470745;28;20191;-68
2023/04/28 13:36:35;;;;;;;17.13;8.97;;;;;;;9.76;93.84;96238.63;10481203;28;20218;-68
2023/04/28 13:41:36;;;;;;;12.80;6.20;;;;;;;10.02;92.53;96228.00;10482088;28;20202;-68
2023/04/28 13:46:36;;;;;;;11.87;5.77;;;;;;;10.19;88.98;96194.75;10471751;28;20265;-68
2023/04/28 13:51:37;;;;;;;9.73;5.77;;;;;;;10.64;86.12;96177.66;10474326;28;20606;-68
2023/04/28 13:56:38;;;;;;;10.47;5.43;;;;;;;10.81;82.72;96164.44;10494415;28;20724;-68
2023/04/28 14:01:38;;;;;;;10.13;5.37;;;;;;;10.88;81.46;96150.50;10493409;28;20866;-68
2023/04/28 14:06:39;;;;;;;10.65;5.57;;;;;;;11.33;81.83;96150.72;10494666;28;20397;-68
2023/04/28 14:11:40;;;;;;;7.68;4.85;;;;;;;11.08;79.58;96121.22;10494410;28;20653;-68
2023/04/28 14:16:40;;;;;;;13.05;5.82;;;;;;;10.86;79.79;96134.13;10493827;28;20211;-67
2023/04/28 14:21:41;;;;;;;8.82;5.20;;;;;;;10.95;80.37;96126.22;10493979;28;20191;-68
2023/04/28 14:26:42;;;;;;;8.23;4.85;;;;;;;10.81;79.61;96112.06;10492490;28;20219;-68
2023/04/28 14:31:43;;;;;;;7.40;4.22;;;;;;;10.85;79.08;96111.53;10491240;28;20191;-68
2023/04/28 14:36:43;;;;;;;6.95;4.72;;;;;;;10.61;80.24;96120.38;10493285;28;20742;-67
2023/04/28 14:41:43;;;;;;;6.82;4.40;;;;;;;10.47;80.79;96121.88;10493049;28;20563;-67
2023/04/28 14:46:44;;;;;;;11.50;5.63;;;;;;;10.45;81.42;96118.63;10492885;28;20292;-68
2023/04/28 14:51:45;;;;;;;8.10;4.47;;;;;;;10.30;80.91;96100.16;10492156;28;20195;-68
2023/04/28 14:56:45;;;;;;;10.98;4.65;;;;;;;10.53;81.16;96104.66;10462376;28;20605;-68
2023/04/28 15:01:47;;;;;;;6.30;4.50;;;;;;;10.31;81.87;96087.91;10467119;28;20241;-67
2023/04/28 15:06:47;;;;;;;9.25;5.00;;;;;;;10.42;80.44;96082.28;10457330;28;20204;-67
2023/04/28 15:11:48;;;;;;;6.63;3.93;;;;;;;10.71;80.03;96070.38;10450384;28;20204;-68
2023/04/28 15:16:48;;;;;;;7.50;3.80;;;;;;;10.62;79.27;96064.34;10450095;28;20223;-67
2023/04/28 15:21:49;;;;;;;5.37;4.17;;;;;;;10.41;80.38;96077.22;10433162;28;20215;-68
2023/04/28 15:26:49;;;;;;;6.50;3.47;;;;;;;10.49;81.03;96079.81;10449760;28;20220;-67
2023/04/28 15:31:49;;;;;;;6.23;3.40;;;;;;;10.33;81.44;96084.13;10463816;28;20199;-68
2023/04/28 15:36:52;;;;;;;6.13;2.87;;;;;;;10.29;80.77;96088.06;10488202;28;20321;-67
2023/04/28 15:41:53;;;;;;;4.80;2.77;;;;;;;10.38;80.74;96057.44;10488949;28;20233;-67
2023/04/28 15:46:54;;;;;;;4.60;2.50;;;;;;;10.16;80.04;96043.28;10481750;28;20273;-67
2023/04/28 15:51:54;;;;;;;5.40;3.60;;;;;;;10.24;81.02;96066.78;10453317;28;20188;-68
2023/04/28 15:56:54;;;;;;;8.80;4.00;;;;;;;10.32;80.10;96061.53;10466076;28;20238;-67
2023/04/28 16:01:55;;;;;;;7.03;4.20;;;;;;;10.46;81.23;96085.38;10465051;28;20199;-67
2023/04/28 16:06:57;;;;;;;5.23;3.60;;;;;;;10.60;80.99;96066.34;10474400;28;20689;-67
2023/04/28 16:11:58;;;;;;;6.20;3.70;;;;;;;10.81;80.11;96057.88;10462058;28;20188;-68
2023/04/28 16:16:59;;;;;;;7.47;4.50;;;;;;;10.92;80.51;96054.03;10482689;28;20210;-68
2023/04/28 16:22:00;;;;;;;10.82;6.18;;;;;;;10.25;82.42;96073.66;10490709;28;20214;-68
2023/04/28 16:27:00;;;;;;;15.63;8.53;;;;;;;10.21;84.18;96085.47;10490434;28;20276;-68
2023/04/28 16:32:00;;;;;;;9.87;5.33;;;;;;;10.14;85.02;96082.72;10490092;28;20195;-67
2023/04/28 16:37:02;;;;;;;7.30;4.80;;;;;;;9.93;86.62;96085.06;10490155;28;20199;-67
2023/04/28 16:42:04;;;;;;;9.83;5.67;;;;;;;10.03;88.01;96084.88;10490546;28;20187;-67
2023/04/28 16:47:04;;;;;;;8.40;5.37;;;;;;;10.02;88.59;96085.88;10489018;28;20215;-67
2023/04/28 16:52:05;;;;;;;8.73;5.93;;;;;;;9.78;90.07;96084.94;10489974;28;20657;-66
2023/04/28 16:57:05;;;;;;;12.20;4.17;;;;;;;9.51;92.09;96088.75;10449245;22;20275;-66
2023/04/28 17:02:05;;;;;;;13.53;6.63;;;;;;;9.51;93.92;96094.81;10450799;28;20680;-66
2023/04/28 17:07:06;;;;;;;8.83;6.43;;;;;;;9.32;96.43;96082.06;10451062;28;20220;-65
2023/04/28 17:12:06;;;;;;;14.53;7.17;;;;;;;9.21;99.16;96076.19;10451084;28;20263;-65
2023/04/28 17:17:06;;;;;;;13.53;7.40;;;;;;;9.09;100.00;96053.97;10451098;28;20241;-65
2023/04/28 17:22:07;;;;;;;10.73;7.17;;;;;;;8.98;100.00;96041.25;10450777;28;20187;-65
2023/04/28 17:27:08;;;;;;;22.37;9.23;;;;;;;8.89;100.00;96054.28;10450789;28;20262;-66
2023/04/28 17:32:08;;;;;;;11.53;7.40;;;;;;;8.89;100.00;96056.09;10450447;28;20612;-66
2023/04/28 17:37:09;;;;;;;15.80;11.33;;;;;;;8.82;100.00;96058.53;10477329;28;20203;-66
2023/04/28 17:42:09;;;;;;;8.60;5.90;;;;;;;8.68;100.00;96062.59;10492259;28;21103;-64
2023/04/28 17:47:10;;;;;;;14.23;9.27;;;;;;;8.68;100.00;96061.78;10491781;28;20681;-65
2023/04/28 17:52:10;;;;;;;15.23;10.70;;;;;;;8.62;100.00;96072.84;10491871;28;20211;-66
2023/04/28 17:57:11;;;;;;;18.10;12.03;;;;;;;8.61;100.00;96079.06;10495307;28;20294;-65
2023/04/28 18:02:12;;;;;;;14.67;11.13;;;;;;;8.56;100.00;96067.31;10499065;28;20195;-64
2023/04/28 18:07:12;;;;;;;18.47;12.10;;;;;;;8.56;100.00;96062.09;10498771;28;20215;-65
2023/04/28 18:12:13;;;;;;;13.33;9.43;;;;;;;8.56;100.00;96077.75;10498667;28;20286;-65
2023/04/28 18:17:13;;;;;;;15.20;9.87;;;;;;;8.53;100.00;96072.84;10480347;28;20203;-66
2023/04/28 18:22:13;;;;;;;17.47;13.70;;;;;;;8.50;100.00;96081.00;10498120;28;20534;-65
2023/04/28 18:27:14;;;;;;;17.30;12.93;;;;;;;8.47;100.00;96080.47;10498221;28;20675;-66
2023/04/28 18:32:15;;;;;;;14.67;11.87;;;;;;;8.51;100.00;96081.81;10497722;28;20523;-65
2023/04/28 18:37:15;;;;;;;15.40;12.47;;;;;;;8.53;100.00;96082.44;10497533;28;20209;-66
2023/04/28 18:42:15;;;;;;;18.43;12.43;;;;;;;8.57;100.00;96100.28;10497572;28;20202;-66
2023/04/28 18:47:16;;;;;;;16.27;10.77;;;;;;;8.64;100.00;96094.41;10497042;28;20315;-65
2023/04/28 18:52:16;;;;;;;17.33;11.83;;;;;;;8.63;100.00;96098.00;10497085;28;20199;-66
2023/04/28 18:57:16;;;;;;;13.63;9.27;;;;;;;8.65;100.00;96114.31;10496608;28;20250;-66
2023/04/28 19:02:19;;;;;;;13.90;10.83;;;;;;;8.71;100.00;96101.44;10496864;28;20223;-65
2023/04/28 19:14:32;;;;;;;11.67;7.83;;;;;;;8.70;100.00;96106.84;10220088;29;20746;-65
2023/04/28 19:19:34;;;;;;;11.97;9.37;;;;;;;8.70;100.00;96106.84;10099675;29;20731;-65
2023/04/28 19:24:35;;;;;;;13.07;7.10;;;;;;;8.73;100.00;96112.53;10266037;28;20229;-65
2023/04/28 19:29:35;;;;;;;10.20;8.03;;;;;;;8.76;100.00;96111.41;10495308;28;20223;-65
2023/04/28 19:34:35;;;;;;;12.20;8.70;;;;;;;8.73;100.00;96114.34;10495366;28;20269;-64
2023/04/28 19:39:36;;;;;;;10.93;8.60;;;;;;;8.78;100.00;96116.47;10494927;28;20183;-65
2023/04/28 19:44:36;;;;;;;10.53;8.10;;;;;;;8.73;100.00;96122.19;10494996;28;20582;-65
2023/04/28 19:49:37;;;;;;;9.57;8.33;;;;;;;8.74;100.00;96113.34;10494779;28;20270;-65
2023/04/28 19:54:38;;;;;;;14.07;9.60;;;;;;;8.74;100.00;96118.56;10494418;28;20266;-65
2023/04/28 19:59:39;;;;;;;17.73;9.93;;;;;;;8.68;100.00;96119.22;10494468;28;20684;-65
2023/04/28 20:04:39;;;;;;;16.43;11.53;;;;;;;8.72;100.00;96107.47;10493963;28;20298;-64
2023/04/28 20:09:39;;;;;;;14.70;12.63;;;;;;;8.66;100.00;96100.28;10494202;28;20230;-65
2023/04/28 20:14:40;;;;;;;15.23;10.83;;;;;;;8.68;100.00;96088.72;10493894;28;20219;-64
2023/04/28 20:19:40;;;;;;;13.23;10.00;;;;;;;8.71;100.00;96098.00;10493518;28;20603;-65
2023/04/28 20:24:41;;;;;;;17.67;9.93;;;;;;;8.69;100.00;96089.53;10493768;28;20596;-65
2023/04/28 20:29:42;;;;;;;19.50;13.57;;;;;;;8.59;100.00;96086.22;10493379;28;20588;-65
2023/04/28 20:34:43;;;;;;;16.00;10.47;;;;;;;8.48;100.00;96077.72;10493724;28;20234;-64
2023/04/28 20:39:43;;;;;;;18.90;12.30;;;;;;;8.53;100.00;96074.63;10493132;28;20217;-65
2023/04/28 20:44:45;;;;;;;13.77;10.63;;;;;;;8.54;100.00;96074.47;10493289;28;20226;-64
2023/04/28 20:49:46;;;;;;;12.90;9.30;;;;;;;8.48;100.00;96085.53;10490724;28;20305;-65
2023/04/28 20:54:46;;;;;;;15.23;10.57;;;;;;;8.48;100.00;96076.91;10493018;28;20334;-64
2023/04/28 20:59:47;;;;;;;13.33;10.90;;;;;;;8.47;100.00;96080.47;10493240;28;20248;-66
2023/04/28 21:04:47;;;;;;;14.73;10.23;;;;;;;8.48;100.00;96066.47;10492423;28;20711;-64
2023/04/28 21:09:47;;;;;;;15.10;11.00;;;;;;;8.40;100.00;96064.63;10492800;28;20676;-66
2023/04/28 21:14:48;;;;;;;14.30;9.77;;;;;;;8.36;100.00;96074.56;10492642;28;20887;-66
2023/04/28 21:19:48;;;;;;;11.03;8.07;;;;;;;8.46;100.00;96064.00;10492531;28;20676;-64
2023/04/28 21:24:48;;;;;;;16.87;9.87;;;;;;;8.60;100.00;96061.75;10492580;28;20590;-65
2023/04/28 21:29:49;;;;;;;13.40;10.60;;;;;;;8.67;100.00;96055.75;10493248;28;20227;-65
2023/04/28 21:34:49;;;;;;;12.77;10.00;;;;;;;8.70;100.00;96052.00;10503331;28;20293;-65
2023/04/28 21:39:49;;;;;;;16.30;10.40;;;;;;;8.72;100.00;96061.28;10500152;28;20692;-64
2023/04/28 21:44:50;;;;;;;18.47;12.10;;;;;;;8.75;100.00;96058.34;10500277;28;20211;-64
2023/04/28 21:49:50;;;;;;;20.07;13.23;;;;;;;8.73;100.00;96055.09;10499834;28;20241;-64
2023/04/28 21:54:51;;;;;;;20.83;13.93;;;;;;;8.75;100.00;96057.53;10499467;28;20613;-64
2023/04/28 21:59:51;;;;;;;21.83;13.87;;;;;;;8.79;100.00;96053.63;10499475;28;20196;-64
2023/04/28 22:04:52;;;;;;;21.87;14.03;;;;;;;8.80;100.00;96052.66;10499335;28;20243;-65
2023/04/28 22:09:53;;;;;;;20.30;13.83;;;;;;;8.85;100.00;96052.16;10499030;28;20299;-66
2023/04/28 22:14:53;;;;;;;19.73;14.07;;;;;;;8.83;100.00;96041.06;10480895;28;20257;-65
2023/04/28 22:19:53;;;;;;;17.27;12.73;;;;;;;8.86;100.00;96031.09;10498783;28;20180;-65
2023/04/28 22:24:54;;;;;;;22.50;13.20;;;;;;;8.97;100.00;96024.72;10501133;28;20218;-65
2023/04/28 22:29:54;;;;;;;18.77;12.53;;;;;;;8.97;100.00;96029.16;10513984;28;20221;-63
2023/04/28 22:34:55;;;;;;;18.67;13.00;;;;;;;8.96;100.00;96011.84;10497070;28;20219;-65
2023/04/28 22:39:55;;;;;;;16.20;11.50;;;;;;;9.01;100.00;96022.63;10497952;28;20657;-64
2023/04/28 22:44:55;;;;;;;15.60;11.37;;;;;;;8.95;100.00;96018.06;10498025;28;20238;-65
2023/04/28 22:49:56;;;;;;;15.60;11.80;;;;;;;8.92;100.00;96017.38;10497788;28;20234;-64
2023/04/28 22:54:56;;;;;;;16.30;10.97;;;;;;;8.93;100.00;96026.88;10512147;22;20247;-62
2023/04/28 22:59:57;;;;;;;15.40;10.47;;;;;;;9.10;100.00;96039.94;10435213;28;20187;-61
2023/04/28 23:04:58;;;;;;;13.70;8.93;;;;;;;9.23;100.00;96032.44;10455629;28;20207;-59
2023/04/28 23:09:58;;;;;;;12.10;8.40;;;;;;;9.23;100.00;96024.59;10455113;28;20215;-62
2023/04/28 23:14:59;;;;;;;9.70;8.53;;;;;;;9.23;100.00;96021.13;10455264;28;20295;-60
2023/04/28 23:19:59;;;;;;;10.03;8.77;;;;;;;9.20;100.00;96003.97;10454669;28;20196;-62
2023/04/28 23:25:00;;;;;;;9.00;8.03;;;;;;;9.21;100.00;95997.78;10454708;28;20211;-61